Time;durP1;ratioP1;P1;durP2;ratioP2;P2;SDS_P1;SDS_P2;PMS_P1;PMS_P2;Temp;Humidity;BMP_temperature;BMP_pressure;BME280_temperature;BME280_humidity;BME280_pressure;Samples;Min_cycle;Max_cycle;Signal;HPM_P1;HPM_P2
2021/07/29 00:01:12;;;;;;;3.17;2.88;;;;;;;;;;3603041;39;20237;-41
2021/07/29 00:03:39;;;;;;;4.32;2.67;;;;;;;;;;3593636;39;20252;-43
2021/07/29 00:06:06;;;;;;;5.03;2.63;;;;;;;;;;3602085;39;20237;-41
2021/07/29 00:08:34;;;;;;;3.20;2.90;;;;;;;;;;3603133;39;20232;-41
2021/07/29 00:11:01;;;;;;;3.28;3.00;;;;;;;;;;3602688;39;20229;-40
2021/07/29 00:13:28;;;;;;;5.40;3.20;;;;;;;;;;3602068;39;20518;-41
2021/07/29 00:15:58;;;;;;;3.92;2.85;;;;;;;;;;3602642;39;20236;-41
2021/07/29 00:21:10;;;;;;;4.97;2.88;;;;;;;;;;3603152;39;20252;-41
2021/07/29 00:23:38;;;;;;;3.90;2.53;;;;;;;;;;3602511;39;20529;-41
2021/07/29 00:26:05;;;;;;;4.15;2.75;;;;;;;;;;3602391;39;20229;-40
2021/07/29 00:28:32;;;;;;;3.70;2.90;;;;;;;;;;3602118;39;20229;-40
2021/07/29 00:31:01;;;;;;;3.90;2.97;;;;;;;;;;3602370;39;20237;-41
2021/07/29 00:33:28;;;;;;;2.97;2.72;;;;;;;;;;3602754;39;20253;-41
2021/07/29 00:36:01;;;;;;;3.95;2.92;;;;;;;;;;3601738;39;20241;-40
2021/07/29 00:38:28;;;;;;;3.05;2.58;;;;;;;;;;3603320;39;20236;-40
2021/07/29 00:40:56;;;;;;;3.20;2.70;;;;;;;;;;3602374;39;20249;-41
2021/07/29 00:43:23;;;;;;;3.33;2.50;;;;;;;;;;3601899;39;20248;-41
2021/07/29 00:45:51;;;;;;;2.85;2.45;;;;;;;;;;3602759;39;20239;-42
2021/07/29 00:48:21;;;;;;;13.27;3.33;;;;;;;;;;3602389;39;20533;-42
2021/07/29 00:50:48;;;;;;;3.25;2.78;;;;;;;;;;3602330;39;20351;-40
2021/07/29 00:53:16;;;;;;;5.05;3.10;;;;;;;;;;3602774;39;20225;-40
2021/07/29 00:55:43;;;;;;;3.22;2.67;;;;;;;;;;3602962;39;20230;-41
2021/07/29 00:58:10;;;;;;;5.13;2.55;;;;;;;;;;3604616;39;20311;-41
2021/07/29 01:00:37;;;;;;;4.13;2.65;;;;;;;;;;3605858;39;20585;-40
2021/07/29 01:03:05;;;;;;;3.47;3.15;;;;;;;;;;3605341;39;20242;-45
2021/07/29 01:05:34;;;;;;;7.30;3.53;;;;;;;;;;3605900;39;20793;-41
2021/07/29 01:08:01;;;;;;;2.67;2.47;;;;;;;;;;3604969;39;20234;-41
2021/07/29 01:10:28;;;;;;;6.05;3.72;;;;;;;;;;3604213;39;20245;-40
2021/07/29 01:12:56;;;;;;;5.20;2.50;;;;;;;;;;3604838;39;20275;-40
2021/07/29 01:15:23;;;;;;;3.75;3.03;;;;;;;;;;3595838;39;20511;-41
2021/07/29 01:17:50;;;;;;;3.63;3.10;;;;;;;;;;3603636;39;20229;-40
2021/07/29 01:20:20;;;;;;;5.82;2.90;;;;;;;;;;3604142;39;20244;-41
2021/07/29 01:22:47;;;;;;;5.00;3.35;;;;;;;;;;3605497;39;20274;-40
2021/07/29 01:25:15;;;;;;;6.55;3.15;;;;;;;;;;3604099;39;20233;-41
2021/07/29 01:27:42;;;;;;;2.90;2.53;;;;;;;;;;3604815;39;20241;-40
2021/07/29 01:30:10;;;;;;;5.32;2.72;;;;;;;;;;3606224;39;20229;-42
2021/07/29 01:32:39;;;;;;;6.50;2.80;;;;;;;;;;3605904;39;20264;-41
2021/07/29 01:35:09;;;;;;;3.67;2.38;;;;;;;;;;3605025;39;20484;-40
2021/07/29 01:37:38;;;;;;;6.50;3.63;;;;;;;;;;3604509;39;20325;-40
2021/07/29 01:40:06;;;;;;;3.65;3.20;;;;;;;;;;3604887;39;20257;-41
2021/07/29 01:42:34;;;;;;;6.45;4.43;;;;;;;;;;3604984;39;20237;-41
2021/07/29 01:45:01;;;;;;;4.00;3.63;;;;;;;;;;3604802;39;20303;-40
2021/07/29 01:47:28;;;;;;;5.75;3.78;;;;;;;;;;3604233;39;20234;-40
2021/07/29 01:49:56;;;;;;;3.75;3.42;;;;;;;;;;3605501;39;20232;-42
2021/07/29 01:52:23;;;;;;;3.55;3.05;;;;;;;;;;3605552;39;20238;-40
2021/07/29 01:54:52;;;;;;;5.57;3.20;;;;;;;;;;3604835;39;20501;-41
2021/07/29 01:57:22;;;;;;;4.40;2.85;;;;;;;;;;3605323;39;20237;-40
2021/07/29 01:59:49;;;;;;;4.97;3.55;;;;;;;;;;3605748;39;20233;-40
2021/07/29 02:02:16;;;;;;;4.25;3.80;;;;;;;;;;3605497;39;20237;-40
2021/07/29 02:04:44;;;;;;;5.68;5.05;;;;;;;;;;3586227;39;20248;-40
2021/07/29 02:07:11;;;;;;;4.47;3.83;;;;;;;;;;3595733;39;20263;-42
2021/07/29 02:09:38;;;;;;;5.03;4.10;;;;;;;;;;3604611;39;20617;-42
2021/07/29 02:12:08;;;;;;;5.57;3.67;;;;;;;;;;3603920;39;20225;-40
2021/07/29 02:14:35;;;;;;;4.43;3.45;;;;;;;;;;3594700;39;20617;-40
2021/07/29 02:17:03;;;;;;;7.90;3.97;;;;;;;;;;3604235;39;20237;-40
2021/07/29 02:19:32;;;;;;;3.85;3.50;;;;;;;;;;3604897;39;20274;-40
2021/07/29 02:21:59;;;;;;;6.72;4.00;;;;;;;;;;3604521;39;20249;-41
2021/07/29 02:24:26;;;;;;;5.00;3.70;;;;;;;;;;3604105;39;20237;-41
2021/07/29 02:26:54;;;;;;;6.40;4.57;;;;;;;;;;3603849;39;20233;-41
2021/07/29 02:29:22;;;;;;;5.43;4.65;;;;;;;;;;3604801;39;20229;-42
2021/07/29 02:31:50;;;;;;;5.90;3.85;;;;;;;;;;3604023;39;20242;-40
2021/07/29 02:34:27;;;;;;;8.00;4.28;;;;;;;;;;3604106;39;20584;-41
2021/07/29 02:36:54;;;;;;;4.85;3.63;;;;;;;;;;3603250;39;20289;-41
2021/07/29 02:39:21;;;;;;;5.68;4.53;;;;;;;;;;3603126;39;20233;-41
2021/07/29 02:41:49;;;;;;;5.82;3.95;;;;;;;;;;3600501;39;20244;-40
2021/07/29 02:44:16;;;;;;;5.28;4.00;;;;;;;;;;3598674;39;20238;-40
2021/07/29 02:46:45;;;;;;;6.40;5.25;;;;;;;;;;3599326;40;20617;-41
2021/07/29 02:49:12;;;;;;;5.85;3.97;;;;;;;;;;3598686;40;20238;-42
2021/07/29 02:51:39;;;;;;;4.88;4.28;;;;;;;;;;3598551;40;20226;-40
2021/07/29 02:54:07;;;;;;;4.72;4.32;;;;;;;;;;3598380;40;20234;-41
2021/07/29 02:56:35;;;;;;;7.50;4.47;;;;;;;;;;3598129;40;20268;-40
2021/07/29 02:59:02;;;;;;;5.22;4.72;;;;;;;;;;3598824;40;20241;-40
2021/07/29 03:01:29;;;;;;;4.95;4.43;;;;;;;;;;3598807;40;20237;-40
2021/07/29 03:03:58;;;;;;;5.55;4.40;;;;;;;;;;3598775;40;20311;-41
2021/07/29 03:06:25;;;;;;;4.32;4.00;;;;;;;;;;3598685;40;20241;-40
2021/07/29 03:08:54;;;;;;;5.03;4.53;;;;;;;;;;3598399;40;20713;-40
2021/07/29 03:11:21;;;;;;;4.60;4.10;;;;;;;;;;3598442;40;20230;-41
2021/07/29 03:13:48;;;;;;;5.25;3.58;;;;;;;;;;3598543;40;20276;-41
2021/07/29 03:16:16;;;;;;;5.22;4.72;;;;;;;;;;3598248;40;20230;-41
2021/07/29 03:18:43;;;;;;;4.47;3.85;;;;;;;;;;3598953;40;20238;-41
2021/07/29 03:21:12;;;;;;;4.68;3.75;;;;;;;;;;3598510;40;20698;-41
2021/07/29 03:23:40;;;;;;;4.88;3.92;;;;;;;;;;3598599;40;20249;-40
2021/07/29 03:26:07;;;;;;;4.63;4.20;;;;;;;;;;3601173;39;20294;-41
2021/07/29 03:28:35;;;;;;;5.25;4.05;;;;;;;;;;3608438;39;20235;-42
2021/07/29 03:31:02;;;;;;;6.47;4.22;;;;;;;;;;3608362;39;20318;-40
2021/07/29 03:33:29;;;;;;;4.22;3.80;;;;;;;;;;3608131;39;20229;-40
2021/07/29 03:35:57;;;;;;;5.20;3.95;;;;;;;;;;3608688;39;20510;-42
2021/07/29 03:38:25;;;;;;;4.57;3.80;;;;;;;;;;3608508;39;20237;-40
2021/07/29 03:40:53;;;;;;;3.97;3.45;;;;;;;;;;3608109;39;20393;-41
2021/07/29 03:43:20;;;;;;;3.80;3.47;;;;;;;;;;3608197;39;20512;-41
2021/07/29 03:45:47;;;;;;;6.63;3.85;;;;;;;;;;3607953;39;20228;-42
2021/07/29 03:48:15;;;;;;;4.28;3.88;;;;;;;;;;3608119;39;20615;-40
2021/07/29 03:50:42;;;;;;;4.22;3.40;;;;;;;;;;3607886;39;20329;-40
2021/07/29 03:53:09;;;;;;;3.90;3.42;;;;;;;;;;3636309;22;20321;31
2021/07/29 03:55:39;;;;;;;4.78;4.05;;;;;;;;;;3607463;39;20240;-42
2021/07/29 03:58:06;;;;;;;3.83;3.47;;;;;;;;;;3607876;39;20240;-43
2021/07/29 04:00:33;;;;;;;5.00;4.40;;;;;;;;;;3608042;39;20229;-42
2021/07/29 04:03:01;;;;;;;5.57;4.20;;;;;;;;;;3608145;39;20248;-42
2021/07/29 04:05:28;;;;;;;6.30;3.90;;;;;;;;;;3618270;39;20228;-41
2021/07/29 04:07:55;;;;;;;4.88;4.40;;;;;;;;;;3618850;39;20233;-42
2021/07/29 04:10:23;;;;;;;5.25;3.95;;;;;;;;;;3618892;39;20558;-42
2021/07/29 04:12:51;;;;;;;3.97;3.67;;;;;;;;;;3617826;39;20243;-42
2021/07/29 04:15:19;;;;;;;4.00;3.58;;;;;;;;;;3618330;39;20247;-41
2021/07/29 04:17:46;;;;;;;5.55;4.28;;;;;;;;;;3608766;39;20244;-42
2021/07/29 04:20:13;;;;;;;6.47;3.92;;;;;;;;;;3618012;39;20696;-42
2021/07/29 04:22:41;;;;;;;5.38;4.68;;;;;;;;;;3618283;39;20320;-41
2021/07/29 04:25:08;;;;;;;6.60;3.70;;;;;;;;;;3618418;39;20325;-42
2021/07/29 04:27:36;;;;;;;5.80;4.00;;;;;;;;;;3619011;39;20514;-41
2021/07/29 04:30:05;;;;;;;5.63;4.22;;;;;;;;;;3619003;39;20309;-42
2021/07/29 04:32:36;;;;;;;6.60;4.35;;;;;;;;;;3619355;39;20232;-41
2021/07/29 04:35:03;;;;;;;4.40;4.00;;;;;;;;;;3618477;39;20244;-42
2021/07/29 04:37:30;;;;;;;5.72;4.13;;;;;;;;;;3618145;39;20236;-42
2021/07/29 04:39:58;;;;;;;7.00;4.30;;;;;;;;;;3618831;39;20268;-41
2021/07/29 04:42:25;;;;;;;7.63;4.38;;;;;;;;;;3618609;39;20234;-42
2021/07/29 04:44:52;;;;;;;3.90;3.60;;;;;;;;;;3618384;39;20240;-41
2021/07/29 04:47:21;;;;;;;5.45;3.90;;;;;;;;;;3609222;39;20326;-41
2021/07/29 04:49:48;;;;;;;4.25;3.53;;;;;;;;;;3607905;39;20229;-41
2021/07/29 04:52:16;;;;;;;5.18;3.72;;;;;;;;;;3607560;39;20322;-42
2021/07/29 04:54:43;;;;;;;4.40;3.65;;;;;;;;;;3608119;39;20309;-42
2021/07/29 04:57:10;;;;;;;6.45;3.90;;;;;;;;;;3607858;39;20491;-41
2021/07/29 04:59:41;;;;;;;4.85;4.35;;;;;;;;;;3607939;39;20244;-42
2021/07/29 05:02:08;;;;;;;4.93;3.65;;;;;;;;;;3608108;39;20261;-41
2021/07/29 05:04:37;;;;;;;6.00;4.30;;;;;;;;;;3607822;39;20245;-42
2021/07/29 05:07:05;;;;;;;5.22;3.75;;;;;;;;;;3609237;39;20539;-41
2021/07/29 05:09:32;;;;;;;6.43;3.38;;;;;;;;;;3609263;39;20245;-41
2021/07/29 05:11:59;;;;;;;9.50;3.75;;;;;;;;;;3608952;39;20238;-43
2021/07/29 05:14:27;;;;;;;3.85;2.72;;;;;;;;;;3607278;39;20513;-41
2021/07/29 05:16:54;;;;;;;8.73;4.15;;;;;;;;;;3605152;39;21531;-42
2021/07/29 05:19:21;;;;;;;5.20;3.00;;;;;;;;;;3607813;39;20233;-43
2021/07/29 05:21:50;;;;;;;4.68;2.90;;;;;;;;;;3609024;39;20249;-41
2021/07/29 05:24:17;;;;;;;4.53;3.08;;;;;;;;;;3609169;39;20510;-41
2021/07/29 05:26:45;;;;;;;12.05;3.53;;;;;;;;;;3608968;39;20314;-42
2021/07/29 05:29:12;;;;;;;5.40;2.75;;;;;;;;;;3609247;39;20623;-46
2021/07/29 05:31:41;;;;;;;4.60;2.95;;;;;;;;;;3607964;39;20225;-41
2021/07/29 05:34:09;;;;;;;3.17;2.75;;;;;;;;;;3609205;39;20627;-42
2021/07/29 05:36:37;;;;;;;4.68;3.35;;;;;;;;;;3608707;39;20225;-41
2021/07/29 05:39:05;;;;;;;3.53;2.67;;;;;;;;;;3609244;39;20597;-42
2021/07/29 05:41:33;;;;;;;5.95;3.53;;;;;;;;;;3605789;39;20548;-42
2021/07/29 05:44:00;;;;;;;3.65;3.10;;;;;;;;;;3606248;39;20256;-42
2021/07/29 05:46:28;;;;;;;4.93;2.80;;;;;;;;;;3607865;39;20616;-41
2021/07/29 05:48:55;;;;;;;3.80;2.60;;;;;;;;;;3608232;39;20233;-42
2021/07/29 05:51:23;;;;;;;3.35;2.72;;;;;;;;;;3609193;39;20601;-42
2021/07/29 05:53:50;;;;;;;3.63;2.65;;;;;;;;;;3611769;39;20243;-42
2021/07/29 05:56:19;;;;;;;2.85;2.17;;;;;;;;;;3618976;39;20232;-42
2021/07/29 05:58:46;;;;;;;3.83;2.63;;;;;;;;;;3618437;39;20240;-44
2021/07/29 06:01:13;;;;;;;5.10;2.42;;;;;;;;;;3615152;39;20244;-42
2021/07/29 06:03:40;;;;;;;3.92;2.72;;;;;;;;;;3617123;39;20252;-42
2021/07/29 06:06:08;;;;;;;2.80;2.60;;;;;;;;;;3617368;39;20620;-42
2021/07/29 06:08:35;;;;;;;12.05;3.70;;;;;;;;;;3615234;39;20322;-40
2021/07/29 06:11:06;;;;;;;7.60;2.88;;;;;;;;;;3618352;39;20500;-42
2021/07/29 06:13:34;;;;;;;4.28;2.83;;;;;;;;;;3615284;39;20608;-42
2021/07/29 06:16:02;;;;;;;5.18;2.55;;;;;;;;;;3618846;39;20236;-43
2021/07/29 06:18:30;;;;;;;4.57;2.88;;;;;;;;;;3614859;39;20240;-42
2021/07/29 06:20:57;;;;;;;4.25;2.90;;;;;;;;;;3613986;39;20596;-42
2021/07/29 06:23:24;;;;;;;3.47;2.75;;;;;;;;;;3669636;22;20526;-76
2021/07/29 06:25:52;;;;;;;3.20;2.50;;;;;;;;;;3602831;39;20221;-76
2021/07/29 06:28:19;;;;;;;4.72;3.22;;;;;;;;;;3602207;40;20617;-77
2021/07/29 06:30:48;;;;;;;2.88;2.00;;;;;;;;;;3604313;40;20242;-76
2021/07/29 06:33:15;;;;;;;3.42;3.13;;;;;;;;;;3595502;40;20609;-76
2021/07/29 06:35:42;;;;;;;2.80;2.60;;;;;;;;;;3604848;40;20237;-76
2021/07/29 06:38:10;;;;;;;5.72;3.30;;;;;;;;;;3661002;23;20241;-42
2021/07/29 06:40:37;;;;;;;2.83;2.63;;;;;;;;;;3610358;39;20345;-42
2021/07/29 06:43:04;;;;;;;4.45;2.63;;;;;;;;;;3607035;39;20248;-42
2021/07/29 06:45:32;;;;;;;5.07;2.88;;;;;;;;;;3609223;39;20269;-42
2021/07/29 06:48:00;;;;;;;3.42;2.17;;;;;;;;;;3616864;39;20228;-41
2021/07/29 06:50:28;;;;;;;7.07;3.15;;;;;;;;;;3608397;39;20233;-42
2021/07/29 06:52:55;;;;;;;2.97;2.53;;;;;;;;;;3636398;22;20253;-42
2021/07/29 06:55:22;;;;;;;5.10;2.95;;;;;;;;;;3597424;39;20233;-41
2021/07/29 06:57:50;;;;;;;3.50;1.80;;;;;;;;;;3598186;40;20706;-41
2021/07/29 07:00:20;;;;;;;4.57;2.63;;;;;;;;;;3598706;39;20246;-40
2021/07/29 07:02:47;;;;;;;4.22;2.15;;;;;;;;;;3597169;39;20331;-40
2021/07/29 07:05:16;;;;;;;4.68;2.28;;;;;;;;;;3595361;39;20246;-40
2021/07/29 07:07:43;;;;;;;2.30;2.10;;;;;;;;;;3608063;39;20290;-40
2021/07/29 07:10:11;;;;;;;6.47;2.88;;;;;;;;;;3606665;39;20214;-40
2021/07/29 07:12:38;;;;;;;2.40;1.67;;;;;;;;;;3601801;40;20326;-42
2021/07/29 07:15:06;;;;;;;4.88;2.17;;;;;;;;;;3601213;40;20241;-39
2021/07/29 07:17:34;;;;;;;3.95;2.35;;;;;;;;;;3601182;40;20234;-40
2021/07/29 07:20:01;;;;;;;4.88;2.40;;;;;;;;;;3601692;40;20238;-40
2021/07/29 07:22:30;;;;;;;7.00;3.60;;;;;;;;;;3601246;40;20252;-42
2021/07/29 07:24:57;;;;;;;5.75;2.25;;;;;;;;;;3592603;40;20229;-41
2021/07/29 07:27:25;;;;;;;6.05;3.22;;;;;;;;;;3601448;39;20242;-41
2021/07/29 07:29:52;;;;;;;3.80;2.47;;;;;;;;;;3602469;40;20296;-41
2021/07/29 07:32:19;;;;;;;5.32;2.65;;;;;;;;;;3601462;40;20597;-42
2021/07/29 07:34:47;;;;;;;3.80;2.38;;;;;;;;;;3601495;39;20315;-44
2021/07/29 07:37:14;;;;;;;4.95;2.72;;;;;;;;;;3597867;39;20244;-40
2021/07/29 07:39:43;;;;;;;4.85;2.08;;;;;;;;;;3603012;39;20499;-40
2021/07/29 07:42:10;;;;;;;4.00;2.33;;;;;;;;;;3609759;39;20256;-41
2021/07/29 07:44:38;;;;;;;4.10;2.70;;;;;;;;;;3610857;39;20245;-40
2021/07/29 07:47:05;;;;;;;5.10;3.05;;;;;;;;;;3601048;40;20230;-42
2021/07/29 07:49:33;;;;;;;5.40;3.00;;;;;;;;;;3600979;40;20230;-42
2021/07/29 07:52:00;;;;;;;4.05;2.50;;;;;;;;;;3601001;40;20573;-40
2021/07/29 07:54:28;;;;;;;3.50;2.33;;;;;;;;;;3601142;40;20261;-40
2021/07/29 07:56:56;;;;;;;1.98;1.88;;;;;;;;;;3591867;40;20245;-44
2021/07/29 07:59:24;;;;;;;2.55;2.05;;;;;;;;;;3600990;40;20303;-42
2021/07/29 08:01:51;;;;;;;2.97;2.70;;;;;;;;;;3601549;40;20241;-42
2021/07/29 08:04:19;;;;;;;4.20;2.08;;;;;;;;;;3600648;40;20305;-40
2021/07/29 08:06:46;;;;;;;8.88;3.00;;;;;;;;;;3598413;40;20234;-40
2021/07/29 08:09:13;;;;;;;3.65;2.42;;;;;;;;;;3599520;39;20229;-41
2021/07/29 08:11:41;;;;;;;2.72;1.80;;;;;;;;;;3598460;39;20245;-40
2021/07/29 08:14:09;;;;;;;2.33;1.92;;;;;;;;;;3598285;40;20342;-42
2021/07/29 08:16:37;;;;;;;3.22;2.15;;;;;;;;;;3597733;40;20237;-40
2021/07/29 08:19:05;;;;;;;8.93;2.92;;;;;;;;;;3595987;40;20233;-42
2021/07/29 08:21:32;;;;;;;2.35;2.10;;;;;;;;;;3597612;40;20307;-40
2021/07/29 08:23:59;;;;;;;2.58;1.55;;;;;;;;;;3597984;40;20237;-40
2021/07/29 08:26:27;;;;;;;2.85;2.60;;;;;;;;;;3597688;40;20267;-42
2021/07/29 08:28:54;;;;;;;5.28;2.08;;;;;;;;;;3598112;39;20233;-40
2021/07/29 08:31:23;;;;;;;6.30;2.55;;;;;;;;;;3597209;39;20617;-40
2021/07/29 08:33:50;;;;;;;6.88;2.42;;;;;;;;;;3597170;40;20253;-40
2021/07/29 08:36:18;;;;;;;5.57;2.50;;;;;;;;;;3597354;40;20241;-42
2021/07/29 08:38:46;;;;;;;4.25;1.90;;;;;;;;;;3597745;39;20245;-43
2021/07/29 08:41:16;;;;;;;2.08;1.77;;;;;;;;;;3604141;39;20329;-40
2021/07/29 08:43:43;;;;;;;2.40;2.20;;;;;;;;;;3608986;39;20586;-41
2021/07/29 08:46:13;;;;;;;4.90;2.13;;;;;;;;;;3604626;39;20229;-40
2021/07/29 08:48:46;;;;;;;6.10;1.75;;;;;;;;;;3595275;39;20258;-42
2021/07/29 08:51:15;;;;;;;4.68;2.35;;;;;;;;;;3603752;39;20236;-40
2021/07/29 08:53:43;;;;;;;2.08;1.85;;;;;;;;;;3604317;39;20329;-42
2021/07/29 08:56:13;;;;;;;3.95;1.88;;;;;;;;;;3599028;39;20600;-40
2021/07/29 08:58:41;;;;;;;1.90;1.52;;;;;;;;;;3599166;40;20233;-43
2021/07/29 09:01:09;;;;;;;2.42;1.98;;;;;;;;;;3598653;40;20238;-40
2021/07/29 09:03:38;;;;;;;6.38;2.53;;;;;;;;;;3599010;40;20517;-41
2021/07/29 09:06:07;;;;;;;6.20;2.17;;;;;;;;;;3599028;39;20611;-41
2021/07/29 09:08:43;;;;;;;4.72;2.20;;;;;;;;;;3602695;39;20249;-40
2021/07/29 09:11:25;;;;;;;3.05;1.80;;;;;;;;;;3604380;39;20233;-41
2021/07/29 09:14:02;;;;;;;4.90;1.45;;;;;;;;;;3588463;40;20315;-41
2021/07/29 09:16:33;;;;;;;2.92;1.75;;;;;;;;;;3602424;40;20318;-42
2021/07/29 09:19:01;;;;;;;3.70;1.58;;;;;;;;;;3596923;40;20238;-40
2021/07/29 09:21:30;;;;;;;5.18;2.35;;;;;;;;;;3602032;40;20237;-41
2021/07/29 09:24:04;;;;;;;5.55;1.80;;;;;;;;;;3602325;40;20229;-40
2021/07/29 09:26:55;;;;;;;2.95;1.45;;;;;;;;;;3592261;40;20233;-43
2021/07/29 09:29:23;;;;;;;2.70;1.58;;;;;;;;;;3601892;40;20245;-47
2021/07/29 09:31:52;;;;;;;4.75;1.67;;;;;;;;;;3601533;39;20242;-42
2021/07/29 09:34:20;;;;;;;1.50;1.10;;;;;;;;;;3599487;40;20254;-41
2021/07/29 09:37:06;;;;;;;2.47;1.15;;;;;;;;;;3598900;40;20283;-43
2021/07/29 09:39:33;;;;;;;4.35;1.98;;;;;;;;;;3599854;40;20237;-42
2021/07/29 09:42:15;;;;;;;2.55;1.65;;;;;;;;;;3606269;39;20501;-42
2021/07/29 09:44:43;;;;;;;4.90;1.58;;;;;;;;;;3609000;39;20324;-42
2021/07/29 09:47:11;;;;;;;4.53;1.27;;;;;;;;;;3598938;39;20248;-41
2021/07/29 09:49:39;;;;;;;4.10;1.52;;;;;;;;;;3598744;39;20266;-41
2021/07/29 09:52:08;;;;;;;3.80;1.95;;;;;;;;;;3598457;40;20240;-42
2021/07/29 09:54:38;;;;;;;2.58;1.52;;;;;;;;;;3599139;40;20249;-40
2021/07/29 09:57:06;;;;;;;5.25;1.30;;;;;;;;;;3601831;39;20328;-41
2021/07/29 09:59:33;;;;;;;3.53;1.75;;;;;;;;;;3605825;39;20245;-41
2021/07/29 10:02:02;;;;;;;5.57;2.05;;;;;;;;;;3599019;39;20258;-42
2021/07/29 10:04:33;;;;;;;2.10;1.38;;;;;;;;;;3602620;39;20241;-40
2021/07/29 10:07:02;;;;;;;4.30;1.60;;;;;;;;;;3599153;40;20607;-42
2021/07/29 10:09:32;;;;;;;1.95;1.42;;;;;;;;;;3598517;40;20289;-42
2021/07/29 10:11:59;;;;;;;3.50;1.20;;;;;;;;;;3589127;40;20279;-45
2021/07/29 10:14:47;;;;;;;4.13;1.90;;;;;;;;;;3598456;40;20681;-41
2021/07/29 10:17:14;;;;;;;5.05;1.48;;;;;;;;;;3598486;40;20291;-41
2021/07/29 10:19:56;;;;;;;6.10;1.65;;;;;;;;;;3589230;40;20246;-41
2021/07/29 10:22:24;;;;;;;5.40;1.92;;;;;;;;;;3598122;40;20244;-41
2021/07/29 10:24:56;;;;;;;5.47;1.40;;;;;;;;;;3598430;39;20244;-42
2021/07/29 10:27:23;;;;;;;3.08;1.88;;;;;;;;;;3597074;39;20554;-41
2021/07/29 10:29:51;;;;;;;3.83;1.90;;;;;;;;;;3599785;39;20299;-41
2021/07/29 10:32:38;;;;;;;8.30;1.83;;;;;;;;;;3600363;39;20241;-41
2021/07/29 10:35:32;;;;;;;3.22;1.40;;;;;;;;;;3594161;39;20249;-42
2021/07/29 10:38:00;;;;;;;1.92;1.10;;;;;;;;;;3607708;39;20611;-42
2021/07/29 10:40:34;;;;;;;4.05;1.30;;;;;;;;;;3598261;40;20514;-41
2021/07/29 10:43:16;;;;;;;4.40;1.90;;;;;;;;;;3598306;40;20250;-42
2021/07/29 10:45:50;;;;;;;4.80;1.50;;;;;;;;;;3588608;40;20645;-42
2021/07/29 10:48:32;;;;;;;6.43;2.13;;;;;;;;;;3598775;40;20241;-43
2021/07/29 10:51:14;;;;;;;2.45;1.70;;;;;;;;;;3602032;39;20237;-42
2021/07/29 10:53:43;;;;;;;2.25;1.48;;;;;;;;;;3597080;40;20230;-41
2021/07/29 10:56:12;;;;;;;5.95;1.70;;;;;;;;;;3597999;39;20238;-47
2021/07/29 10:58:40;;;;;;;4.20;1.50;;;;;;;;;;3602585;39;20334;-42
2021/07/29 11:01:08;;;;;;;3.60;1.20;;;;;;;;;;3601024;39;20242;-41
2021/07/29 11:03:59;;;;;;;6.30;1.25;;;;;;;;;;3590758;40;20261;-42
2021/07/29 11:06:36;;;;;;;2.53;1.52;;;;;;;;;;3598649;40;20282;-41
2021/07/29 11:09:10;;;;;;;5.85;1.77;;;;;;;;;;3599435;39;20551;-42
2021/07/29 11:11:39;;;;;;;7.00;1.63;;;;;;;;;;3599205;40;20238;-41
2021/07/29 11:14:07;;;;;;;2.47;0.90;;;;;;;;;;3597964;40;20311;-42
2021/07/29 11:16:35;;;;;;;2.45;1.00;;;;;;;;;;3604781;39;20229;-40
2021/07/29 11:19:03;;;;;;;4.68;1.23;;;;;;;;;;3604534;39;20237;-40
2021/07/29 11:21:31;;;;;;;3.60;1.25;;;;;;;;;;3601546;39;20298;-42
2021/07/29 11:23:58;;;;;;;5.13;1.77;;;;;;;;;;3591417;39;20514;-41
2021/07/29 11:26:26;;;;;;;5.97;1.35;;;;;;;;;;3596968;39;20315;-43
2021/07/29 11:29:08;;;;;;;3.60;1.58;;;;;;;;;;3597447;40;20226;-42
2021/07/29 11:31:35;;;;;;;4.28;1.83;;;;;;;;;;3597949;40;20257;-41
2021/07/29 11:34:03;;;;;;;2.70;1.08;;;;;;;;;;3598113;40;20230;-41
2021/07/29 11:36:31;;;;;;;5.78;1.42;;;;;;;;;;3598081;40;20246;-42
2021/07/29 11:39:00;;;;;;;2.80;1.63;;;;;;;;;;3597862;40;20264;-43
2021/07/29 11:41:27;;;;;;;4.82;1.35;;;;;;;;;;3597921;40;20288;-43
2021/07/29 11:43:56;;;;;;;4.80;1.48;;;;;;;;;;3597662;40;20248;-42
2021/07/29 11:46:24;;;;;;;3.42;1.27;;;;;;;;;;3600966;39;20241;-43
2021/07/29 11:49:05;;;;;;;4.30;1.52;;;;;;;;;;3599967;39;20245;-41
2021/07/29 11:51:32;;;;;;;2.30;1.65;;;;;;;;;;3587272;40;20625;-42
2021/07/29 11:54:00;;;;;;;2.33;1.52;;;;;;;;;;3600518;39;20615;-44
2021/07/29 11:56:28;;;;;;;3.90;1.35;;;;;;;;;;3598638;39;20269;-41
2021/07/29 11:58:59;;;;;;;3.10;1.45;;;;;;;;;;3598227;40;20252;-43
2021/07/29 12:01:29;;;;;;;4.90;1.45;;;;;;;;;;3598078;40;20242;-41
2021/07/29 12:03:57;;;;;;;4.32;1.73;;;;;;;;;;3598019;40;20225;-42
2021/07/29 12:06:25;;;;;;;3.65;1.65;;;;;;;;;;3598361;40;20247;-43
2021/07/29 12:08:53;;;;;;;2.40;1.35;;;;;;;;;;3596079;39;20241;-43
2021/07/29 12:11:21;;;;;;;3.38;1.30;;;;;;;;;;3599796;39;20228;-42
2021/07/29 12:13:49;;;;;;;4.78;1.75;;;;;;;;;;3597843;39;20315;-43
2021/07/29 12:16:16;;;;;;;8.18;2.25;;;;;;;;;;3597750;40;20241;-43
2021/07/29 12:18:45;;;;;;;3.95;1.83;;;;;;;;;;3598826;39;20236;-42
2021/07/29 12:21:13;;;;;;;3.03;2.15;;;;;;;;;;3601498;39;20491;-42
2021/07/29 12:23:50;;;;;;;5.50;2.08;;;;;;;;;;3600429;39;20249;-43
2021/07/29 12:26:17;;;;;;;6.28;2.10;;;;;;;;;;3598070;40;20298;-42
2021/07/29 12:28:46;;;;;;;5.15;1.80;;;;;;;;;;3597857;40;20241;-43
2021/07/29 12:31:20;;;;;;;3.53;1.40;;;;;;;;;;3588298;40;20229;-42
2021/07/29 12:33:53;;;;;;;5.22;1.38;;;;;;;;;;3588482;40;20282;-43
2021/07/29 12:36:21;;;;;;;2.40;1.70;;;;;;;;;;3588042;40;20244;-42
2021/07/29 12:38:57;;;;;;;6.50;2.13;;;;;;;;;;3597705;40;20496;-40
2021/07/29 12:41:33;;;;;;;9.00;3.00;;;;;;;;;;3592524;39;20268;-46
2021/07/29 12:44:07;;;;;;;4.57;1.95;;;;;;;;;;3598655;39;20337;-41
2021/07/29 12:46:34;;;;;;;1.77;1.45;;;;;;;;;;3593549;40;20232;-42
2021/07/29 12:49:03;;;;;;;4.45;1.65;;;;;;;;;;3597750;40;20268;-41
2021/07/29 12:51:35;;;;;;;3.22;1.83;;;;;;;;;;3597869;40;20222;-43
2021/07/29 12:54:02;;;;;;;5.53;2.30;;;;;;;;;;3631340;23;20500;-42
2021/07/29 12:56:29;;;;;;;3.88;1.58;;;;;;;;;;3594655;39;20281;-44
2021/07/29 12:58:57;;;;;;;4.82;1.65;;;;;;;;;;3596609;39;20242;-43
2021/07/29 13:01:24;;;;;;;3.05;1.55;;;;;;;;;;3597830;40;20238;-42
2021/07/29 13:03:51;;;;;;;2.97;1.48;;;;;;;;;;3596168;40;20326;-46
2021/07/29 13:06:20;;;;;;;6.63;2.22;;;;;;;;;;3597870;40;20528;-42
2021/07/29 13:08:48;;;;;;;5.88;2.22;;;;;;;;;;3597949;40;20260;-45
2021/07/29 13:11:16;;;;;;;2.67;1.40;;;;;;;;;;3597749;40;20273;-41
2021/07/29 13:13:44;;;;;;;4.20;1.52;;;;;;;;;;3597219;40;20601;-40
2021/07/29 13:16:12;;;;;;;4.25;1.75;;;;;;;;;;3597524;40;20242;-41
2021/07/29 13:18:39;;;;;;;4.82;1.73;;;;;;;;;;3595808;40;20291;-41
2021/07/29 13:21:07;;;;;;;4.05;1.67;;;;;;;;;;3593112;40;20238;-43
2021/07/29 13:23:36;;;;;;;3.70;1.60;;;;;;;;;;3596179;40;20625;-43
2021/07/29 13:26:04;;;;;;;5.07;2.20;;;;;;;;;;3598091;39;20629;-42
2021/07/29 13:28:32;;;;;;;4.82;1.73;;;;;;;;;;3598662;40;20242;-42
2021/07/29 13:31:01;;;;;;;8.73;1.80;;;;;;;;;;3598931;40;20281;-43
2021/07/29 13:33:29;;;;;;;4.18;2.00;;;;;;;;;;3597251;40;20590;-42
2021/07/29 13:35:56;;;;;;;3.20;1.77;;;;;;;;;;3593996;40;20236;-42
2021/07/29 13:38:24;;;;;;;6.15;1.67;;;;;;;;;;3598860;40;20628;-43
2021/07/29 13:40:53;;;;;;;4.30;1.98;;;;;;;;;;3597847;40;20571;-42
2021/07/29 13:43:21;;;;;;;4.55;1.50;;;;;;;;;;3598736;40;20286;-41
2021/07/29 13:45:49;;;;;;;5.82;1.90;;;;;;;;;;3596730;40;20242;-44
2021/07/29 13:48:17;;;;;;;3.33;1.83;;;;;;;;;;3586915;40;20735;-42
2021/07/29 13:50:44;;;;;;;2.83;1.52;;;;;;;;;;3599492;40;20248;-45
2021/07/29 13:53:12;;;;;;;4.35;2.00;;;;;;;;;;3598912;40;20245;-42
2021/07/29 13:55:39;;;;;;;2.38;1.33;;;;;;;;;;3598572;40;20318;-44
2021/07/29 13:58:08;;;;;;;6.03;1.70;;;;;;;;;;3598537;40;20621;-42
2021/07/29 14:00:35;;;;;;;6.10;1.90;;;;;;;;;;3598550;40;20233;-45
2021/07/29 14:03:02;;;;;;;3.90;1.45;;;;;;;;;;3598399;40;20241;-43
2021/07/29 14:05:31;;;;;;;1.73;1.63;;;;;;;;;;3598893;40;20245;-42
2021/07/29 14:07:58;;;;;;;1.95;1.48;;;;;;;;;;3598494;40;20229;-42
2021/07/29 14:10:26;;;;;;;4.03;1.98;;;;;;;;;;3597493;40;20346;-41
2021/07/29 14:12:54;;;;;;;5.22;2.05;;;;;;;;;;3593682;40;20245;-42
2021/07/29 14:15:23;;;;;;;5.75;2.67;;;;;;;;;;3588244;40;20250;-42
2021/07/29 14:17:57;;;;;;;2.90;2.08;;;;;;;;;;3586038;40;20244;-41
2021/07/29 14:20:27;;;;;;;4.88;1.38;;;;;;;;;;3589406;40;20238;-44
2021/07/29 14:23:01;;;;;;;4.13;1.92;;;;;;;;;;3598237;40;20249;-44
2021/07/29 14:25:30;;;;;;;3.33;1.70;;;;;;;;;;3595815;40;20494;-43
2021/07/29 14:27:57;;;;;;;2.80;1.55;;;;;;;;;;3655065;22;20675;-78
2021/07/29 14:30:29;;;;;;;6.13;1.70;;;;;;;;;;3621203;39;20248;-78
2021/07/29 14:33:05;;;;;;;3.15;1.77;;;;;;;;;;3612630;39;20213;-80
2021/07/29 14:35:35;;;;;;;5.45;1.38;;;;;;;;;;3622714;39;20290;-78
2021/07/29 14:38:04;;;;;;;5.70;1.50;;;;;;;;;;3623767;39;20247;-79
2021/07/29 14:40:31;;;;;;;12.45;2.03;;;;;;;;;;3660950;22;20544;-77
2021/07/29 14:42:58;;;;;;;3.50;1.50;;;;;;;;;;3609758;39;20214;-79
2021/07/29 14:51:05;;;;;;;5.03;2.08;;;;;;;;;;3599579;40;20244;-77
2021/07/29 14:53:32;;;;;;;7.07;1.50;;;;;;;;;;3607526;40;20242;-77
2021/07/29 14:56:13;;;;;;;7.15;2.03;;;;;;;;;;3598419;40;20225;-76
2021/07/29 16:07:58;;;;;;;2.95;2.17;;;;;;;;;;3608814;39;20254;-76
2021/07/29 16:10:26;;;;;;;4.45;1.75;;;;;;;;;;3599804;40;20241;-76